sensor_id;sensor_type;location;lat;lon;timestamp;P1;durP1;ratioP1;P2;durP2;ratioP2
12958;SDS011;6544;51.666;6.634;2023-02-15T00:02:01;27.53;;;20.27;;
12958;SDS011;6544;51.666;6.634;2023-02-15T00:04:28;30.77;;;19.10;;
12958;SDS011;6544;51.666;6.634;2023-02-15T00:07:13;27.47;;;19.23;;
12958;SDS011;6544;51.666;6.634;2023-02-15T00:09:40;24.07;;;18.97;;
12958;SDS011;6544;51.666;6.634;2023-02-15T00:12:08;28.00;;;20.30;;
12958;SDS011;6544;51.666;6.634;2023-02-15T00:14:35;27.87;;;20.50;;
12958;SDS011;6544;51.666;6.634;2023-02-15T00:17:02;26.90;;;19.60;;
12958;SDS011;6544;51.666;6.634;2023-02-15T00:19:29;26.63;;;19.53;;
12958;SDS011;6544;51.666;6.634;2023-02-15T00:21:56;25.37;;;19.07;;
12958;SDS011;6544;51.666;6.634;2023-02-15T00:24:25;27.53;;;19.83;;
12958;SDS011;6544;51.666;6.634;2023-02-15T00:26:52;27.17;;;19.77;;
12958;SDS011;6544;51.666;6.634;2023-02-15T00:29:19;29.53;;;21.20;;
12958;SDS011;6544;51.666;6.634;2023-02-15T00:31:46;30.33;;;21.40;;
12958;SDS011;6544;51.666;6.634;2023-02-15T00:34:14;27.73;;;20.53;;
12958;SDS011;6544;51.666;6.634;2023-02-15T00:36:43;28.87;;;21.20;;
12958;SDS011;6544;51.666;6.634;2023-02-15T00:39:11;28.93;;;20.47;;
12958;SDS011;6544;51.666;6.634;2023-02-15T00:41:39;29.57;;;21.03;;
12958;SDS011;6544;51.666;6.634;2023-02-15T00:44:07;30.03;;;21.50;;
12958;SDS011;6544;51.666;6.634;2023-02-15T00:46:34;28.67;;;20.20;;
12958;SDS011;6544;51.666;6.634;2023-02-15T00:49:01;30.60;;;21.57;;
12958;SDS011;6544;51.666;6.634;2023-02-15T00:51:29;30.17;;;21.07;;
12958;SDS011;6544;51.666;6.634;2023-02-15T00:53:56;30.53;;;21.07;;
12958;SDS011;6544;51.666;6.634;2023-02-15T00:56:23;28.83;;;20.97;;
12958;SDS011;6544;51.666;6.634;2023-02-15T00:58:51;31.43;;;21.30;;
12958;SDS011;6544;51.666;6.634;2023-02-15T01:01:18;28.57;;;21.10;;
12958;SDS011;6544;51.666;6.634;2023-02-15T01:03:48;30.83;;;21.13;;
12958;SDS011;6544;51.666;6.634;2023-02-15T01:06:16;27.10;;;20.17;;
12958;SDS011;6544;51.666;6.634;2023-02-15T01:08:43;28.97;;;21.10;;
12958;SDS011;6544;51.666;6.634;2023-02-15T01:11:11;29.10;;;20.93;;
12958;SDS011;6544;51.666;6.634;2023-02-15T01:13:39;30.60;;;22.20;;
12958;SDS011;6544;51.666;6.634;2023-02-15T01:16:08;29.33;;;20.40;;
12958;SDS011;6544;51.666;6.634;2023-02-15T01:18:35;29.40;;;21.00;;
12958;SDS011;6544;51.666;6.634;2023-02-15T01:21:08;29.33;;;21.87;;
12958;SDS011;6544;51.666;6.634;2023-02-15T01:23:38;27.27;;;20.73;;
12958;SDS011;6544;51.666;6.634;2023-02-15T01:26:05;28.70;;;21.33;;
12958;SDS011;6544;51.666;6.634;2023-02-15T01:28:33;29.90;;;21.30;;
12958;SDS011;6544;51.666;6.634;2023-02-15T01:31:03;29.13;;;21.30;;
12958;SDS011;6544;51.666;6.634;2023-02-15T01:33:32;31.20;;;21.70;;
12958;SDS011;6544;51.666;6.634;2023-02-15T01:36:00;30.07;;;20.93;;
12958;SDS011;6544;51.666;6.634;2023-02-15T01:38:27;29.70;;;20.90;;
12958;SDS011;6544;51.666;6.634;2023-02-15T01:40:54;27.97;;;19.87;;
12958;SDS011;6544;51.666;6.634;2023-02-15T01:43:43;30.97;;;20.80;;
12958;SDS011;6544;51.666;6.634;2023-02-15T01:46:11;28.77;;;20.80;;
12958;SDS011;6544;51.666;6.634;2023-02-15T01:48:42;29.67;;;21.57;;
12958;SDS011;6544;51.666;6.634;2023-02-15T01:51:12;32.30;;;21.23;;
12958;SDS011;6544;51.666;6.634;2023-02-15T01:53:43;31.63;;;21.53;;
12958;SDS011;6544;51.666;6.634;2023-02-15T01:56:14;30.10;;;20.40;;
12958;SDS011;6544;51.666;6.634;2023-02-15T01:58:44;29.77;;;20.93;;
12958;SDS011;6544;51.666;6.634;2023-02-15T02:01:14;30.00;;;20.93;;
12958;SDS011;6544;51.666;6.634;2023-02-15T02:03:45;31.03;;;21.53;;
12958;SDS011;6544;51.666;6.634;2023-02-15T02:06:19;30.40;;;21.07;;
12958;SDS011;6544;51.666;6.634;2023-02-15T02:08:46;30.60;;;20.97;;
12958;SDS011;6544;51.666;6.634;2023-02-15T02:11:14;32.17;;;22.80;;
12958;SDS011;6544;51.666;6.634;2023-02-15T02:13:42;32.13;;;21.43;;
12958;SDS011;6544;51.666;6.634;2023-02-15T02:16:11;32.67;;;21.57;;
12958;SDS011;6544;51.666;6.634;2023-02-15T02:18:46;29.83;;;21.20;;
12958;SDS011;6544;51.666;6.634;2023-02-15T02:24:34;31.33;;;22.53;;
12958;SDS011;6544;51.666;6.634;2023-02-15T02:27:28;31.67;;;20.97;;
12958;SDS011;6544;51.666;6.634;2023-02-15T02:30:06;31.30;;;21.10;;
12958;SDS011;6544;51.666;6.634;2023-02-15T02:33:06;31.13;;;21.40;;
12958;SDS011;6544;51.666;6.634;2023-02-15T02:35:53;30.20;;;21.00;;
12958;SDS011;6544;51.666;6.634;2023-02-15T02:38:27;30.87;;;22.30;;
12958;SDS011;6544;51.666;6.634;2023-02-15T02:41:06;33.27;;;23.10;;
12958;SDS011;6544;51.666;6.634;2023-02-15T02:43:40;32.50;;;22.13;;
12958;SDS011;6544;51.666;6.634;2023-02-15T02:46:14;31.50;;;22.10;;
12958;SDS011;6544;51.666;6.634;2023-02-15T02:48:46;30.30;;;21.40;;
12958;SDS011;6544;51.666;6.634;2023-02-15T02:51:15;32.83;;;22.57;;
12958;SDS011;6544;51.666;6.634;2023-02-15T02:53:46;33.03;;;23.10;;
12958;SDS011;6544;51.666;6.634;2023-02-15T02:56:18;33.43;;;22.57;;
12958;SDS011;6544;51.666;6.634;2023-02-15T02:58:50;33.87;;;23.47;;
12958;SDS011;6544;51.666;6.634;2023-02-15T03:01:22;34.13;;;23.33;;
12958;SDS011;6544;51.666;6.634;2023-02-15T03:03:54;34.13;;;22.70;;
12958;SDS011;6544;51.666;6.634;2023-02-15T03:06:25;36.30;;;24.03;;
12958;SDS011;6544;51.666;6.634;2023-02-15T03:08:57;33.87;;;24.30;;
12958;SDS011;6544;51.666;6.634;2023-02-15T03:11:29;33.47;;;22.63;;
12958;SDS011;6544;51.666;6.634;2023-02-15T03:13:56;34.27;;;23.27;;
12958;SDS011;6544;51.666;6.634;2023-02-15T03:16:24;34.43;;;22.73;;
12958;SDS011;6544;51.666;6.634;2023-02-15T03:18:54;34.90;;;24.07;;
12958;SDS011;6544;51.666;6.634;2023-02-15T03:21:26;31.97;;;22.80;;
12958;SDS011;6544;51.666;6.634;2023-02-15T03:23:59;30.50;;;22.40;;
12958;SDS011;6544;51.666;6.634;2023-02-15T03:26:30;32.57;;;22.73;;
12958;SDS011;6544;51.666;6.634;2023-02-15T03:28:58;33.77;;;24.40;;
12958;SDS011;6544;51.666;6.634;2023-02-15T03:31:28;32.70;;;23.63;;
12958;SDS011;6544;51.666;6.634;2023-02-15T03:34:00;34.00;;;23.07;;
12958;SDS011;6544;51.666;6.634;2023-02-15T03:36:32;33.63;;;23.27;;
12958;SDS011;6544;51.666;6.634;2023-02-15T03:39:05;36.63;;;25.17;;
12958;SDS011;6544;51.666;6.634;2023-02-15T03:41:37;35.00;;;24.07;;
12958;SDS011;6544;51.666;6.634;2023-02-15T03:44:10;34.00;;;24.13;;
12958;SDS011;6544;51.666;6.634;2023-02-15T03:46:42;36.20;;;24.43;;
12958;SDS011;6544;51.666;6.634;2023-02-15T03:49:15;36.43;;;25.43;;
12958;SDS011;6544;51.666;6.634;2023-02-15T03:51:47;36.07;;;25.53;;
12958;SDS011;6544;51.666;6.634;2023-02-15T03:54:16;35.33;;;25.27;;
12958;SDS011;6544;51.666;6.634;2023-02-15T03:57:02;35.17;;;24.43;;
12958;SDS011;6544;51.666;6.634;2023-02-15T03:59:47;34.93;;;24.40;;
12958;SDS011;6544;51.666;6.634;2023-02-15T04:02:32;36.27;;;23.63;;
12958;SDS011;6544;51.666;6.634;2023-02-15T04:05:06;33.30;;;23.70;;
12958;SDS011;6544;51.666;6.634;2023-02-15T04:07:33;32.43;;;23.00;;
12958;SDS011;6544;51.666;6.634;2023-02-15T04:09:59;33.63;;;23.50;;
12958;SDS011;6544;51.666;6.634;2023-02-15T04:12:44;34.17;;;22.10;;
12958;SDS011;6544;51.666;6.634;2023-02-15T04:15:11;34.47;;;23.07;;
12958;SDS011;6544;51.666;6.634;2023-02-15T04:17:56;35.43;;;22.57;;
12958;SDS011;6544;51.666;6.634;2023-02-15T04:20:24;32.60;;;22.77;;
12958;SDS011;6544;51.666;6.634;2023-02-15T04:23:08;34.80;;;23.20;;
12958;SDS011;6544;51.666;6.634;2023-02-15T04:25:52;32.63;;;22.90;;
12958;SDS011;6544;51.666;6.634;2023-02-15T04:28:19;35.27;;;22.73;;
12958;SDS011;6544;51.666;6.634;2023-02-15T04:30:46;32.47;;;22.30;;
12958;SDS011;6544;51.666;6.634;2023-02-15T04:33:13;32.83;;;22.73;;
12958;SDS011;6544;51.666;6.634;2023-02-15T04:35:42;32.83;;;22.80;;
12958;SDS011;6544;51.666;6.634;2023-02-15T04:38:11;32.37;;;21.93;;
12958;SDS011;6544;51.666;6.634;2023-02-15T04:40:37;33.10;;;22.60;;
12958;SDS011;6544;51.666;6.634;2023-02-15T04:43:04;30.27;;;21.47;;
12958;SDS011;6544;51.666;6.634;2023-02-15T04:45:31;33.40;;;22.97;;
12958;SDS011;6544;51.666;6.634;2023-02-15T04:47:58;32.50;;;22.63;;
12958;SDS011;6544;51.666;6.634;2023-02-15T04:50:25;31.87;;;22.27;;
12958;SDS011;6544;51.666;6.634;2023-02-15T04:52:53;34.77;;;23.70;;
12958;SDS011;6544;51.666;6.634;2023-02-15T04:55:20;30.50;;;21.60;;
12958;SDS011;6544;51.666;6.634;2023-02-15T04:57:47;32.80;;;23.30;;
12958;SDS011;6544;51.666;6.634;2023-02-15T05:00:14;32.97;;;23.77;;
12958;SDS011;6544;51.666;6.634;2023-02-15T05:02:41;32.80;;;23.40;;
12958;SDS011;6544;51.666;6.634;2023-02-15T05:05:08;33.97;;;23.23;;
12958;SDS011;6544;51.666;6.634;2023-02-15T05:07:37;36.23;;;24.43;;
12958;SDS011;6544;51.666;6.634;2023-02-15T05:10:06;37.63;;;24.30;;
12958;SDS011;6544;51.666;6.634;2023-02-15T05:12:34;34.87;;;24.37;;
12958;SDS011;6544;51.666;6.634;2023-02-15T05:15:01;34.57;;;23.13;;
12958;SDS011;6544;51.666;6.634;2023-02-15T05:17:28;35.00;;;23.20;;
12958;SDS011;6544;51.666;6.634;2023-02-15T05:19:55;35.37;;;24.93;;
12958;SDS011;6544;51.666;6.634;2023-02-15T05:22:22;36.73;;;24.37;;
12958;SDS011;6544;51.666;6.634;2023-02-15T05:24:48;34.60;;;24.43;;
12958;SDS011;6544;51.666;6.634;2023-02-15T05:27:34;34.00;;;24.23;;
12958;SDS011;6544;51.666;6.634;2023-02-15T05:30:18;35.93;;;23.70;;
12958;SDS011;6544;51.666;6.634;2023-02-15T05:32:45;32.83;;;23.97;;
12958;SDS011;6544;51.666;6.634;2023-02-15T05:35:13;37.20;;;24.73;;
12958;SDS011;6544;51.666;6.634;2023-02-15T05:37:41;35.30;;;24.00;;
12958;SDS011;6544;51.666;6.634;2023-02-15T05:40:08;36.73;;;24.57;;
12958;SDS011;6544;51.666;6.634;2023-02-15T05:42:37;35.87;;;24.60;;
12958;SDS011;6544;51.666;6.634;2023-02-15T05:45:04;33.33;;;24.03;;
12958;SDS011;6544;51.666;6.634;2023-02-15T05:47:32;36.60;;;24.93;;
12958;SDS011;6544;51.666;6.634;2023-02-15T05:49:59;36.80;;;24.93;;
12958;SDS011;6544;51.666;6.634;2023-02-15T05:52:26;38.50;;;25.47;;
12958;SDS011;6544;51.666;6.634;2023-02-15T05:54:52;36.00;;;25.23;;
12958;SDS011;6544;51.666;6.634;2023-02-15T05:57:19;38.87;;;26.00;;
12958;SDS011;6544;51.666;6.634;2023-02-15T05:59:48;38.43;;;25.93;;
12958;SDS011;6544;51.666;6.634;2023-02-15T06:02:15;38.67;;;26.77;;
12958;SDS011;6544;51.666;6.634;2023-02-15T06:04:41;40.77;;;26.47;;
12958;SDS011;6544;51.666;6.634;2023-02-15T06:07:09;39.27;;;25.77;;
12958;SDS011;6544;51.666;6.634;2023-02-15T06:09:35;36.43;;;25.30;;
12958;SDS011;6544;51.666;6.634;2023-02-15T06:12:02;38.20;;;25.97;;
12958;SDS011;6544;51.666;6.634;2023-02-15T06:14:29;34.27;;;24.53;;
12958;SDS011;6544;51.666;6.634;2023-02-15T06:16:58;34.83;;;24.40;;
12958;SDS011;6544;51.666;6.634;2023-02-15T06:19:25;36.27;;;24.90;;
12958;SDS011;6544;51.666;6.634;2023-02-15T06:21:51;34.87;;;24.50;;
12958;SDS011;6544;51.666;6.634;2023-02-15T06:24:18;37.07;;;25.23;;
12958;SDS011;6544;51.666;6.634;2023-02-15T06:26:45;33.43;;;23.90;;
12958;SDS011;6544;51.666;6.634;2023-02-15T06:29:12;37.07;;;25.27;;
12958;SDS011;6544;51.666;6.634;2023-02-15T06:31:39;35.47;;;24.20;;
12958;SDS011;6544;51.666;6.634;2023-02-15T06:34:07;34.10;;;24.60;;
12958;SDS011;6544;51.666;6.634;2023-02-15T06:36:34;33.80;;;24.07;;
12958;SDS011;6544;51.666;6.634;2023-02-15T06:39:02;38.03;;;25.30;;
12958;SDS011;6544;51.666;6.634;2023-02-15T06:41:29;36.30;;;24.77;;
12958;SDS011;6544;51.666;6.634;2023-02-15T06:43:56;35.20;;;24.33;;
12958;SDS011;6544;51.666;6.634;2023-02-15T06:46:23;39.23;;;25.13;;
12958;SDS011;6544;51.666;6.634;2023-02-15T06:48:50;39.40;;;25.70;;
12958;SDS011;6544;51.666;6.634;2023-02-15T06:51:18;35.70;;;24.47;;
12958;SDS011;6544;51.666;6.634;2023-02-15T06:53:45;36.07;;;24.07;;
12958;SDS011;6544;51.666;6.634;2023-02-15T06:56:12;34.67;;;24.50;;
12958;SDS011;6544;51.666;6.634;2023-02-15T06:58:39;37.57;;;24.80;;
12958;SDS011;6544;51.666;6.634;2023-02-15T07:01:07;35.77;;;24.23;;
12958;SDS011;6544;51.666;6.634;2023-02-15T07:03:35;37.83;;;25.00;;
12958;SDS011;6544;51.666;6.634;2023-02-15T07:06:02;38.47;;;24.80;;
12958;SDS011;6544;51.666;6.634;2023-02-15T07:08:34;36.07;;;25.03;;
12958;SDS011;6544;51.666;6.634;2023-02-15T07:11:02;35.73;;;24.37;;
12958;SDS011;6544;51.666;6.634;2023-02-15T07:13:42;37.37;;;25.67;;
12958;SDS011;6544;51.666;6.634;2023-02-15T07:16:09;39.53;;;26.13;;
12958;SDS011;6544;51.666;6.634;2023-02-15T07:18:36;37.53;;;24.83;;
12958;SDS011;6544;51.666;6.634;2023-02-15T07:21:03;38.60;;;25.67;;
12958;SDS011;6544;51.666;6.634;2023-02-15T07:23:32;37.60;;;25.87;;
12958;SDS011;6544;51.666;6.634;2023-02-15T07:26:01;43.87;;;26.20;;
12958;SDS011;6544;51.666;6.634;2023-02-15T07:28:28;40.47;;;26.67;;
12958;SDS011;6544;51.666;6.634;2023-02-15T07:30:55;38.50;;;25.17;;
12958;SDS011;6544;51.666;6.634;2023-02-15T07:33:23;43.90;;;26.50;;
12958;SDS011;6544;51.666;6.634;2023-02-15T07:35:52;39.03;;;25.83;;
12958;SDS011;6544;51.666;6.634;2023-02-15T07:38:20;42.63;;;26.97;;
12958;SDS011;6544;51.666;6.634;2023-02-15T07:40:49;43.40;;;26.47;;
12958;SDS011;6544;51.666;6.634;2023-02-15T07:43:16;42.73;;;27.10;;
12958;SDS011;6544;51.666;6.634;2023-02-15T07:45:43;41.50;;;26.00;;
12958;SDS011;6544;51.666;6.634;2023-02-15T07:48:10;43.03;;;27.07;;
12958;SDS011;6544;51.666;6.634;2023-02-15T07:50:36;41.50;;;26.00;;
12958;SDS011;6544;51.666;6.634;2023-02-15T07:53:03;42.37;;;27.53;;
12958;SDS011;6544;51.666;6.634;2023-02-15T07:55:30;41.93;;;26.83;;
12958;SDS011;6544;51.666;6.634;2023-02-15T07:57:59;46.43;;;27.90;;
12958;SDS011;6544;51.666;6.634;2023-02-15T08:00:26;44.80;;;28.27;;
12958;SDS011;6544;51.666;6.634;2023-02-15T08:02:55;43.23;;;27.20;;
12958;SDS011;6544;51.666;6.634;2023-02-15T08:05:41;41.27;;;26.33;;
12958;SDS011;6544;51.666;6.634;2023-02-15T08:08:09;41.47;;;26.73;;
12958;SDS011;6544;51.666;6.634;2023-02-15T08:10:56;43.27;;;27.30;;
12958;SDS011;6544;51.666;6.634;2023-02-15T08:13:43;42.27;;;26.33;;
12958;SDS011;6544;51.666;6.634;2023-02-15T08:16:21;43.70;;;26.03;;
12958;SDS011;6544;51.666;6.634;2023-02-15T08:18:49;43.00;;;25.17;;
12958;SDS011;6544;51.666;6.634;2023-02-15T08:21:16;44.30;;;27.00;;
12958;SDS011;6544;51.666;6.634;2023-02-15T08:23:43;42.43;;;27.23;;
12958;SDS011;6544;51.666;6.634;2023-02-15T08:26:10;42.33;;;26.90;;
12958;SDS011;6544;51.666;6.634;2023-02-15T08:28:37;42.47;;;26.60;;
12958;SDS011;6544;51.666;6.634;2023-02-15T08:31:06;39.40;;;26.17;;
12958;SDS011;6544;51.666;6.634;2023-02-15T08:33:34;42.07;;;23.60;;
12958;SDS011;6544;51.666;6.634;2023-02-15T08:36:03;38.60;;;25.63;;
12958;SDS011;6544;51.666;6.634;2023-02-15T08:38:31;40.53;;;25.77;;
12958;SDS011;6544;51.666;6.634;2023-02-15T08:40:58;38.00;;;25.17;;
12958;SDS011;6544;51.666;6.634;2023-02-15T08:43:34;36.50;;;24.57;;
12958;SDS011;6544;51.666;6.634;2023-02-15T08:46:01;36.73;;;24.60;;
12958;SDS011;6544;51.666;6.634;2023-02-15T08:48:29;38.30;;;24.43;;
12958;SDS011;6544;51.666;6.634;2023-02-15T08:50:56;35.67;;;23.77;;
12958;SDS011;6544;51.666;6.634;2023-02-15T08:53:23;36.10;;;23.40;;
12958;SDS011;6544;51.666;6.634;2023-02-15T08:55:54;33.40;;;23.63;;
12958;SDS011;6544;51.666;6.634;2023-02-15T08:58:22;36.00;;;23.70;;
12958;SDS011;6544;51.666;6.634;2023-02-15T09:00:48;36.47;;;23.63;;
12958;SDS011;6544;51.666;6.634;2023-02-15T09:03:15;35.17;;;21.83;;
12958;SDS011;6544;51.666;6.634;2023-02-15T09:05:44;33.20;;;22.20;;
12958;SDS011;6544;51.666;6.634;2023-02-15T09:08:11;31.00;;;22.10;;
12958;SDS011;6544;51.666;6.634;2023-02-15T09:10:38;33.33;;;22.50;;
12958;SDS011;6544;51.666;6.634;2023-02-15T09:13:04;30.27;;;21.27;;
12958;SDS011;6544;51.666;6.634;2023-02-15T09:15:31;32.13;;;22.40;;
12958;SDS011;6544;51.666;6.634;2023-02-15T09:17:58;36.87;;;21.70;;
12958;SDS011;6544;51.666;6.634;2023-02-15T09:20:29;34.73;;;22.50;;
12958;SDS011;6544;51.666;6.634;2023-02-15T09:22:57;31.90;;;22.13;;
12958;SDS011;6544;51.666;6.634;2023-02-15T09:25:25;32.10;;;21.87;;
12958;SDS011;6544;51.666;6.634;2023-02-15T09:27:52;33.47;;;20.97;;
12958;SDS011;6544;51.666;6.634;2023-02-15T09:30:19;34.23;;;21.03;;
12958;SDS011;6544;51.666;6.634;2023-02-15T09:32:46;34.70;;;23.50;;
12958;SDS011;6544;51.666;6.634;2023-02-15T09:35:13;34.03;;;22.27;;
12958;SDS011;6544;51.666;6.634;2023-02-15T09:37:40;36.77;;;22.43;;
12958;SDS011;6544;51.666;6.634;2023-02-15T09:40:09;33.53;;;23.43;;
12958;SDS011;6544;51.666;6.634;2023-02-15T09:42:48;31.10;;;22.00;;
12958;SDS011;6544;51.666;6.634;2023-02-15T09:45:50;34.97;;;21.93;;
12958;SDS011;6544;51.666;6.634;2023-02-15T09:48:39;36.83;;;22.33;;
12958;SDS011;6544;51.666;6.634;2023-02-15T09:51:12;32.33;;;21.10;;
12958;SDS011;6544;51.666;6.634;2023-02-15T09:54:09;35.42;;;22.73;;
12958;SDS011;6544;51.666;6.634;2023-02-15T09:56:52;33.47;;;22.53;;
12958;SDS011;6544;51.666;6.634;2023-02-15T09:59:24;36.47;;;23.67;;
12958;SDS011;6544;51.666;6.634;2023-02-15T10:02:02;40.20;;;23.83;;
12958;SDS011;6544;51.666;6.634;2023-02-15T10:04:45;37.07;;;22.83;;
12958;SDS011;6544;51.666;6.634;2023-02-15T10:07:23;35.55;;;22.60;;
12958;SDS011;6544;51.666;6.634;2023-02-15T10:10:15;38.23;;;22.53;;
12958;SDS011;6544;51.666;6.634;2023-02-15T10:13:00;32.77;;;22.20;;
12958;SDS011;6544;51.666;6.634;2023-02-15T10:15:42;33.33;;;22.70;;
12958;SDS011;6544;51.666;6.634;2023-02-15T10:18:29;35.90;;;22.30;;
12958;SDS011;6544;51.666;6.634;2023-02-15T10:21:14;36.92;;;22.42;;
12958;SDS011;6544;51.666;6.634;2023-02-15T10:23:55;38.08;;;22.98;;
12958;SDS011;6544;51.666;6.634;2023-02-15T10:26:42;39.20;;;22.75;;
12958;SDS011;6544;51.666;6.634;2023-02-15T10:29:15;38.40;;;22.65;;
12958;SDS011;6544;51.666;6.634;2023-02-15T10:31:49;37.88;;;22.77;;
12958;SDS011;6544;51.666;6.634;2023-02-15T10:34:18;33.88;;;22.20;;
12958;SDS011;6544;51.666;6.634;2023-02-15T10:37:03;38.80;;;22.98;;
12958;SDS011;6544;51.666;6.634;2023-02-15T10:39:40;32.97;;;21.60;;
12958;SDS011;6544;51.666;6.634;2023-02-15T10:42:17;32.85;;;22.42;;
12958;SDS011;6544;51.666;6.634;2023-02-15T10:44:58;36.17;;;22.25;;
12958;SDS011;6544;51.666;6.634;2023-02-15T10:50:30;35.92;;;20.92;;
12958;SDS011;6544;51.666;6.634;2023-02-15T10:53:15;35.78;;;22.08;;
12958;SDS011;6544;51.666;6.634;2023-02-15T10:56:03;33.30;;;20.92;;
12958;SDS011;6544;51.666;6.634;2023-02-15T10:58:42;28.95;;;20.17;;
12958;SDS011;6544;51.666;6.634;2023-02-15T11:01:23;32.72;;;21.17;;
12958;SDS011;6544;51.666;6.634;2023-02-15T11:04:03;29.00;;;19.58;;
12958;SDS011;6544;51.666;6.634;2023-02-15T11:06:50;28.83;;;18.98;;
12958;SDS011;6544;51.666;6.634;2023-02-15T11:09:21;28.33;;;19.15;;
12958;SDS011;6544;51.666;6.634;2023-02-15T11:11:51;28.98;;;18.33;;
12958;SDS011;6544;51.666;6.634;2023-02-15T11:14:23;27.50;;;20.35;;
12958;SDS011;6544;51.666;6.634;2023-02-15T11:17:08;27.63;;;19.73;;
12958;SDS011;6544;51.666;6.634;2023-02-15T11:19:39;27.23;;;17.58;;
12958;SDS011;6544;51.666;6.634;2023-02-15T11:22:10;27.08;;;18.50;;
12958;SDS011;6544;51.666;6.634;2023-02-15T11:24:39;28.25;;;19.20;;
12958;SDS011;6544;51.666;6.634;2023-02-15T11:27:15;25.17;;;17.60;;
12958;SDS011;6544;51.666;6.634;2023-02-15T11:29:48;28.42;;;18.77;;
12958;SDS011;6544;51.666;6.634;2023-02-15T11:32:23;27.60;;;18.92;;
12958;SDS011;6544;51.666;6.634;2023-02-15T11:34:54;26.00;;;18.17;;
12958;SDS011;6544;51.666;6.634;2023-02-15T11:37:27;27.42;;;18.73;;
12958;SDS011;6544;51.666;6.634;2023-02-15T11:40:00;24.25;;;17.25;;
12958;SDS011;6544;51.666;6.634;2023-02-15T11:42:29;24.65;;;17.45;;
12958;SDS011;6544;51.666;6.634;2023-02-15T11:44:59;24.52;;;17.38;;
12958;SDS011;6544;51.666;6.634;2023-02-15T11:47:32;24.92;;;17.75;;
12958;SDS011;6544;51.666;6.634;2023-02-15T11:49:59;28.63;;;18.63;;
12958;SDS011;6544;51.666;6.634;2023-02-15T11:52:26;26.50;;;18.85;;
12958;SDS011;6544;51.666;6.634;2023-02-15T11:54:53;29.02;;;17.88;;
12958;SDS011;6544;51.666;6.634;2023-02-15T11:57:22;25.10;;;18.33;;
12958;SDS011;6544;51.666;6.634;2023-02-15T11:59:53;27.92;;;19.23;;
12958;SDS011;6544;51.666;6.634;2023-02-15T12:02:29;23.92;;;18.58;;
12958;SDS011;6544;51.666;6.634;2023-02-15T12:05:00;26.25;;;17.27;;
12958;SDS011;6544;51.666;6.634;2023-02-15T12:07:40;32.13;;;17.90;;
12958;SDS011;6544;51.666;6.634;2023-02-15T12:10:16;24.17;;;16.52;;
12958;SDS011;6544;51.666;6.634;2023-02-15T12:12:45;25.55;;;19.45;;
12958;SDS011;6544;51.666;6.634;2023-02-15T12:15:12;21.30;;;16.80;;
12958;SDS011;6544;51.666;6.634;2023-02-15T12:17:41;24.42;;;17.25;;
12958;SDS011;6544;51.666;6.634;2023-02-15T12:20:24;27.90;;;17.05;;
12958;SDS011;6544;51.666;6.634;2023-02-15T12:22:58;23.52;;;18.75;;
12958;SDS011;6544;51.666;6.634;2023-02-15T12:25:29;23.42;;;17.25;;
12958;SDS011;6544;51.666;6.634;2023-02-15T12:28:01;23.75;;;17.02;;
12958;SDS011;6544;51.666;6.634;2023-02-15T12:30:29;25.48;;;19.05;;
12958;SDS011;6544;51.666;6.634;2023-02-15T12:33:00;23.83;;;17.13;;
12958;SDS011;6544;51.666;6.634;2023-02-15T12:35:39;23.15;;;16.88;;
12958;SDS011;6544;51.666;6.634;2023-02-15T12:38:21;22.17;;;16.38;;
12958;SDS011;6544;51.666;6.634;2023-02-15T12:40:56;22.73;;;16.10;;
12958;SDS011;6544;51.666;6.634;2023-02-15T12:43:25;29.17;;;18.48;;
12958;SDS011;6544;51.666;6.634;2023-02-15T12:45:53;24.27;;;16.15;;
12958;SDS011;6544;51.666;6.634;2023-02-15T12:48:40;25.90;;;18.17;;
12958;SDS011;6544;51.666;6.634;2023-02-15T12:51:08;28.02;;;17.15;;
12958;SDS011;6544;51.666;6.634;2023-02-15T12:53:39;26.00;;;18.08;;
12958;SDS011;6544;51.666;6.634;2023-02-15T12:56:07;25.00;;;19.17;;
12958;SDS011;6544;51.666;6.634;2023-02-15T12:58:35;25.75;;;18.40;;
12958;SDS011;6544;51.666;6.634;2023-02-15T13:01:08;27.67;;;19.38;;
12958;SDS011;6544;51.666;6.634;2023-02-15T13:03:39;27.08;;;16.95;;
12958;SDS011;6544;51.666;6.634;2023-02-15T13:06:21;23.38;;;16.50;;
12958;SDS011;6544;51.666;6.634;2023-02-15T13:08:49;24.33;;;17.67;;
12958;SDS011;6544;51.666;6.634;2023-02-15T13:11:19;24.90;;;17.00;;
12958;SDS011;6544;51.666;6.634;2023-02-15T13:13:50;25.98;;;19.23;;
12958;SDS011;6544;51.666;6.634;2023-02-15T13:16:19;24.67;;;16.80;;
12958;SDS011;6544;51.666;6.634;2023-02-15T13:18:57;23.00;;;16.73;;
12958;SDS011;6544;51.666;6.634;2023-02-15T13:21:30;25.85;;;17.55;;
12958;SDS011;6544;51.666;6.634;2023-02-15T13:24:02;23.13;;;16.90;;
12958;SDS011;6544;51.666;6.634;2023-02-15T13:26:34;22.00;;;16.27;;
12958;SDS011;6544;51.666;6.634;2023-02-15T13:29:04;29.20;;;17.48;;
12958;SDS011;6544;51.666;6.634;2023-02-15T13:31:34;25.95;;;16.83;;
12958;SDS011;6544;51.666;6.634;2023-02-15T13:34:07;24.25;;;16.20;;
12958;SDS011;6544;51.666;6.634;2023-02-15T13:36:41;22.45;;;16.17;;
12958;SDS011;6544;51.666;6.634;2023-02-15T13:39:20;25.77;;;16.48;;
12958;SDS011;6544;51.666;6.634;2023-02-15T13:41:56;27.83;;;16.80;;
12958;SDS011;6544;51.666;6.634;2023-02-15T13:44:47;23.83;;;16.70;;
12958;SDS011;6544;51.666;6.634;2023-02-15T13:47:35;25.35;;;16.58;;
12958;SDS011;6544;51.666;6.634;2023-02-15T13:50:23;24.85;;;16.70;;
12958;SDS011;6544;51.666;6.634;2023-02-15T13:53:10;23.27;;;16.27;;
12958;SDS011;6544;51.666;6.634;2023-02-15T13:55:52;28.25;;;17.05;;
12958;SDS011;6544;51.666;6.634;2023-02-15T14:01:24;25.52;;;17.33;;
12958;SDS011;6544;51.666;6.634;2023-02-15T14:04:03;26.15;;;18.40;;
12958;SDS011;6544;51.666;6.634;2023-02-15T14:06:49;25.77;;;17.23;;
12958;SDS011;6544;51.666;6.634;2023-02-15T14:09:40;22.60;;;16.40;;
12958;SDS011;6544;51.666;6.634;2023-02-15T14:12:23;26.02;;;16.88;;
12958;SDS011;6544;51.666;6.634;2023-02-15T14:18:07;26.27;;;16.83;;
12958;SDS011;6544;51.666;6.634;2023-02-15T14:20:43;24.65;;;16.75;;
12958;SDS011;6544;51.666;6.634;2023-02-15T14:23:21;30.60;;;16.73;;
12958;SDS011;6544;51.666;6.634;2023-02-15T14:26:02;24.35;;;16.40;;
12958;SDS011;6544;51.666;6.634;2023-02-15T14:28:34;26.17;;;17.90;;
12958;SDS011;6544;51.666;6.634;2023-02-15T14:31:09;24.73;;;17.08;;
12958;SDS011;6544;51.666;6.634;2023-02-15T14:33:38;23.48;;;16.70;;
12958;SDS011;6544;51.666;6.634;2023-02-15T14:36:08;23.08;;;16.63;;
12958;SDS011;6544;51.666;6.634;2023-02-15T14:38:48;25.58;;;17.98;;
12958;SDS011;6544;51.666;6.634;2023-02-15T14:41:24;23.45;;;16.33;;
12958;SDS011;6544;51.666;6.634;2023-02-15T14:43:59;26.10;;;16.90;;
12958;SDS011;6544;51.666;6.634;2023-02-15T14:46:34;27.40;;;17.33;;
12958;SDS011;6544;51.666;6.634;2023-02-15T14:49:09;27.70;;;19.05;;
12958;SDS011;6544;51.666;6.634;2023-02-15T14:51:54;26.77;;;17.67;;
12958;SDS011;6544;51.666;6.634;2023-02-15T14:57:23;25.10;;;18.65;;
12958;SDS011;6544;51.666;6.634;2023-02-15T14:59:53;27.25;;;17.88;;
12958;SDS011;6544;51.666;6.634;2023-02-15T15:02:23;25.13;;;16.60;;
12958;SDS011;6544;51.666;6.634;2023-02-15T15:04:56;29.55;;;18.60;;
12958;SDS011;6544;51.666;6.634;2023-02-15T15:07:36;26.00;;;17.40;;
12958;SDS011;6544;51.666;6.634;2023-02-15T15:16:29;30.00;;;16.88;;
12958;SDS011;6544;51.666;6.634;2023-02-15T15:19:12;26.65;;;17.08;;
12958;SDS011;6544;51.666;6.634;2023-02-15T15:22:37;24.83;;;16.65;;
12958;SDS011;6544;51.666;6.634;2023-02-15T15:25:08;23.30;;;17.02;;